createdAt,value
2022-12-07T00:01:07.796Z,42.00
2022-12-07T00:03:37.968Z,43.60
2022-12-07T00:06:06.985Z,42.87
2022-12-07T00:08:35.961Z,43.53
2022-12-07T00:11:05.175Z,41.67
2022-12-07T00:13:34.000Z,42.07
2022-12-07T00:16:03.953Z,40.47
2022-12-07T00:18:32.462Z,39.17
2022-12-07T00:21:06.303Z,41.30
2022-12-07T00:23:36.015Z,39.83
2022-12-07T00:26:08.659Z,39.30
2022-12-07T00:28:37.321Z,43.03
2022-12-07T00:31:06.891Z,38.37
2022-12-07T00:33:35.537Z,42.50
2022-12-07T00:36:06.086Z,39.90
2022-12-07T00:38:35.871Z,38.53
2022-12-07T00:41:04.991Z,38.27
2022-12-07T00:43:33.622Z,39.27
2022-12-07T00:46:02.186Z,39.73
2022-12-07T00:48:30.899Z,37.60
2022-12-07T00:50:59.507Z,41.33
2022-12-07T00:53:29.513Z,38.70
2022-12-07T00:55:58.246Z,39.23
2022-12-07T00:58:26.673Z,39.73
2022-12-07T01:00:55.283Z,39.20
2022-12-07T01:03:23.940Z,39.70
2022-12-07T01:05:53.489Z,41.40
2022-12-07T01:08:22.383Z,36.83
2022-12-07T01:10:52.615Z,35.10
2022-12-07T01:13:21.029Z,37.20
2022-12-07T01:15:49.606Z,37.00
2022-12-07T01:18:18.028Z,35.27
2022-12-07T01:20:46.412Z,35.13
2022-12-07T01:23:14.861Z,31.50
2022-12-07T01:25:43.348Z,38.77
2022-12-07T01:28:13.130Z,36.63
2022-12-07T01:30:41.608Z,32.50
2022-12-07T01:33:10.075Z,30.10
2022-12-07T01:35:38.487Z,32.57
2022-12-07T01:38:06.942Z,26.97
2022-12-07T01:40:35.346Z,29.20
2022-12-07T01:43:03.764Z,27.50
2022-12-07T01:45:41.265Z,26.47
2022-12-07T01:48:12.456Z,26.50
2022-12-07T01:50:41.687Z,27.77
2022-12-07T01:53:12.080Z,30.63
2022-12-07T01:55:42.047Z,31.47
2022-12-07T01:58:10.853Z,30.10
2022-12-07T02:00:39.276Z,32.70
2022-12-07T02:03:09.362Z,28.23
2022-12-07T02:05:40.593Z,30.67
2022-12-07T02:08:09.142Z,27.90
2022-12-07T02:10:37.561Z,27.47
2022-12-07T02:13:07.509Z,27.63
2022-12-07T02:15:41.520Z,27.43
2022-12-07T02:18:11.880Z,28.50
2022-12-07T02:20:45.996Z,27.30
2022-12-07T02:23:33.213Z,24.20
2022-12-07T02:26:13.031Z,26.10
2022-12-07T02:28:49.872Z,25.13
2022-12-07T02:31:21.888Z,26.43
2022-12-07T02:33:53.015Z,25.47
2022-12-07T02:36:25.107Z,25.00
2022-12-07T02:38:58.385Z,26.13
2022-12-07T02:41:30.292Z,26.93
2022-12-07T02:44:02.277Z,25.53
2022-12-07T02:46:33.005Z,23.97
2022-12-07T02:49:01.552Z,24.30
2022-12-07T02:51:32.932Z,23.90
2022-12-07T02:54:01.824Z,23.83
2022-12-07T02:56:33.808Z,23.00
2022-12-07T02:59:10.184Z,22.27
2022-12-07T03:01:44.008Z,22.37
2022-12-07T03:04:17.764Z,22.57
2022-12-07T03:06:48.633Z,21.10
2022-12-07T03:09:17.661Z,22.03
2022-12-07T03:11:48.320Z,19.00
2022-12-07T03:14:20.371Z,19.93
2022-12-07T03:16:53.287Z,20.90
2022-12-07T03:19:22.877Z,19.20
2022-12-07T03:21:54.371Z,18.73
2022-12-07T03:24:24.501Z,18.47
2022-12-07T03:26:55.257Z,17.73
2022-12-07T03:29:27.185Z,17.73
2022-12-07T03:31:58.162Z,19.97
2022-12-07T03:34:29.981Z,16.63
2022-12-07T03:37:00.654Z,16.07
2022-12-07T03:39:30.724Z,16.10
2022-12-07T03:42:00.185Z,16.53
2022-12-07T03:44:30.442Z,16.47
2022-12-07T03:47:01.528Z,15.97
2022-12-07T03:49:33.353Z,18.57
2022-12-07T03:52:05.587Z,15.93
2022-12-07T03:54:37.207Z,17.60
2022-12-07T03:57:07.144Z,17.00
2022-12-07T03:59:37.269Z,17.83
2022-12-07T04:02:07.829Z,16.63
2022-12-07T04:04:37.053Z,15.90
2022-12-07T04:07:05.485Z,16.43
2022-12-07T04:09:34.194Z,16.60
2022-12-07T04:12:02.630Z,15.90
2022-12-07T04:14:31.035Z,16.27
2022-12-07T04:17:01.364Z,18.87
2022-12-07T04:19:30.554Z,14.83
2022-12-07T04:21:59.280Z,16.63
2022-12-07T04:24:27.995Z,18.97
2022-12-07T04:26:56.539Z,16.57
2022-12-07T04:29:25.033Z,18.93
2022-12-07T04:31:53.940Z,16.43
2022-12-07T04:34:23.785Z,15.80
2022-12-07T04:36:52.193Z,20.07
2022-12-07T04:39:22.848Z,17.50
2022-12-07T04:41:51.233Z,17.80
2022-12-07T04:44:20.281Z,16.70
2022-12-07T04:46:48.676Z,17.30
2022-12-07T04:49:17.463Z,18.73
2022-12-07T04:51:47.559Z,16.80
2022-12-07T04:54:16.374Z,17.97
2022-12-07T04:56:45.158Z,17.77
2022-12-07T04:59:13.737Z,16.07
2022-12-07T05:01:42.113Z,15.53
2022-12-07T05:04:10.494Z,16.83
2022-12-07T05:06:38.658Z,16.03
2022-12-07T05:09:08.294Z,16.47
2022-12-07T05:11:42.209Z,14.50
2022-12-07T05:14:16.706Z,15.30
2022-12-07T05:16:45.602Z,15.60
2022-12-07T05:19:14.051Z,14.40
2022-12-07T05:21:42.394Z,13.00
2022-12-07T05:24:14.153Z,13.27
2022-12-07T05:26:42.953Z,13.50
2022-12-07T05:29:14.548Z,15.57
2022-12-07T05:31:42.894Z,13.33
2022-12-07T05:34:11.089Z,12.30
2022-12-07T05:36:39.228Z,13.90
2022-12-07T05:39:08.224Z,10.67
2022-12-07T05:41:55.356Z,14.63
2022-12-07T05:44:23.549Z,14.33
2022-12-07T05:46:51.736Z,13.23
2022-12-07T05:49:20.073Z,12.03
2022-12-07T05:51:48.285Z,10.90
2022-12-07T05:54:16.413Z,12.10
2022-12-07T05:56:45.988Z,10.27
2022-12-07T05:59:27.625Z,11.03
2022-12-07T06:01:57.853Z,10.37
2022-12-07T06:04:27.225Z,9.60
2022-12-07T06:06:55.650Z,10.33
2022-12-07T06:09:24.941Z,9.83
2022-12-07T06:12:11.682Z,10.87
2022-12-07T06:14:40.224Z,10.43
2022-12-07T06:17:08.631Z,10.10
2022-12-07T06:19:37.269Z,11.77
2022-12-07T06:22:06.234Z,11.60
2022-12-07T06:24:35.805Z,12.97
2022-12-07T06:27:05.722Z,10.67
2022-12-07T06:29:34.251Z,9.50
2022-12-07T06:32:02.829Z,8.83
2022-12-07T06:34:31.361Z,11.37
2022-12-07T06:36:59.860Z,12.47
2022-12-07T06:39:29.506Z,12.70
2022-12-07T06:41:57.967Z,10.00
2022-12-07T06:44:28.085Z,9.27
2022-12-07T06:47:18.846Z,11.07
2022-12-07T06:49:44.921Z,9.77
2022-12-07T06:52:13.341Z,9.53
2022-12-07T06:54:41.737Z,9.30
2022-12-07T06:57:10.175Z,9.27
2022-12-07T06:59:40.278Z,8.93
2022-12-07T07:02:08.778Z,9.10
2022-12-07T07:04:37.188Z,8.47
2022-12-07T07:07:05.576Z,8.63
2022-12-07T07:09:33.985Z,7.77
2022-12-07T07:12:02.418Z,8.80
2022-12-07T07:14:30.795Z,8.50
2022-12-07T07:17:00.708Z,8.60
2022-12-07T07:19:29.367Z,8.50
2022-12-07T07:21:57.760Z,8.57
2022-12-07T07:24:27.208Z,8.40
2022-12-07T07:26:55.642Z,6.90
2022-12-07T07:29:24.111Z,7.33
2022-12-07T07:31:52.497Z,7.30
2022-12-07T07:34:22.298Z,17.37
2022-12-07T07:36:50.691Z,7.50
2022-12-07T07:39:19.080Z,8.17
2022-12-07T07:41:47.507Z,6.97
2022-12-07T07:44:16.012Z,7.60
2022-12-07T07:46:44.444Z,8.27
2022-12-07T07:49:12.955Z,7.03
2022-12-07T07:51:42.801Z,7.37
2022-12-07T07:54:11.241Z,7.53
2022-12-07T07:56:39.682Z,9.40
2022-12-07T07:59:08.071Z,8.83
2022-12-07T08:01:36.629Z,7.10
2022-12-07T08:04:05.182Z,7.77
2022-12-07T08:06:33.572Z,7.93
2022-12-07T08:09:03.428Z,6.43
2022-12-07T08:11:31.853Z,8.40
2022-12-07T08:14:00.247Z,11.50
2022-12-07T08:16:28.890Z,11.47
2022-12-07T08:18:57.470Z,8.67
2022-12-07T08:21:26.202Z,11.13
2022-12-07T08:23:54.797Z,7.40
2022-12-07T08:26:24.793Z,7.20
2022-12-07T08:28:53.210Z,8.20
2022-12-07T08:31:21.709Z,7.87
2022-12-07T08:33:50.696Z,7.67
2022-12-07T08:36:19.220Z,8.37
2022-12-07T08:39:14.979Z,12.67
2022-12-07T08:41:37.357Z,7.93
2022-12-07T08:44:06.149Z,8.67
2022-12-07T08:46:40.244Z,11.70
2022-12-07T08:49:13.777Z,8.57
2022-12-07T08:51:43.144Z,10.47
2022-12-07T08:54:15.146Z,11.10
2022-12-07T08:56:46.268Z,9.03
2022-12-07T08:59:17.113Z,9.30
2022-12-07T09:01:45.366Z,11.40
2022-12-07T09:04:13.668Z,8.67
2022-12-07T09:06:43.464Z,9.33
2022-12-07T09:09:13.352Z,8.73
2022-12-07T09:11:41.519Z,8.10
2022-12-07T09:14:11.093Z,8.97
2022-12-07T09:16:39.295Z,8.97
2022-12-07T09:19:07.691Z,8.80
2022-12-07T09:21:35.814Z,8.00
2022-12-07T09:24:04.137Z,12.57
2022-12-07T09:26:32.616Z,10.83
2022-12-07T09:29:00.739Z,11.60
2022-12-07T09:31:30.355Z,10.37
2022-12-07T09:33:59.915Z,9.30
2022-12-07T09:36:28.765Z,10.43
2022-12-07T09:38:57.020Z,13.33
2022-12-07T09:41:27.429Z,9.20
2022-12-07T09:44:00.379Z,10.00
2022-12-07T09:46:30.930Z,10.73
2022-12-07T09:48:59.144Z,11.80
2022-12-07T09:51:27.310Z,11.83
2022-12-07T09:53:58.783Z,12.37
2022-12-07T09:56:27.444Z,10.37
2022-12-07T09:59:02.038Z,12.70
2022-12-07T10:01:33.963Z,9.17
2022-12-07T10:04:11.526Z,13.23
2022-12-07T10:06:39.820Z,9.67
2022-12-07T10:09:12.620Z,11.33
2022-12-07T10:12:03.445Z,12.57
2022-12-07T10:15:05.822Z,16.27
2022-12-07T10:17:35.014Z,8.23
2022-12-07T10:20:27.767Z,10.20
2022-12-07T10:23:04.404Z,12.80
2022-12-07T10:25:34.953Z,8.47
2022-12-07T10:28:18.007Z,9.53
2022-12-07T10:30:57.905Z,9.73
2022-12-07T10:33:36.701Z,7.93
2022-12-07T10:36:21.340Z,9.27
2022-12-07T10:38:52.480Z,11.27
2022-12-07T10:41:21.318Z,11.93
2022-12-07T10:43:51.796Z,9.17
2022-12-07T10:46:48.947Z,8.37
2022-12-07T10:50:05.058Z,8.23
2022-12-07T10:52:54.874Z,9.97
2022-12-07T10:55:29.044Z,9.03
2022-12-07T10:58:19.041Z,9.53
2022-12-07T11:00:57.174Z,8.07
2022-12-07T11:03:40.361Z,10.43
2022-12-07T11:06:23.305Z,8.23
2022-12-07T11:09:06.216Z,9.83
2022-12-07T11:11:38.772Z,10.27
2022-12-07T11:14:20.544Z,10.10
2022-12-07T11:16:58.079Z,8.90
2022-12-07T11:19:52.133Z,9.47
2022-12-07T11:22:30.506Z,13.00
2022-12-07T11:25:12.515Z,9.37
2022-12-07T11:27:46.107Z,9.70
2022-12-07T11:30:19.009Z,8.37
2022-12-07T11:32:58.458Z,8.97
2022-12-07T11:35:35.945Z,7.77
2022-12-07T11:38:12.461Z,9.03
2022-12-07T11:40:45.406Z,7.83
2022-12-07T11:43:21.408Z,9.30
2022-12-07T11:45:56.533Z,9.70
2022-12-07T11:48:34.132Z,11.17
2022-12-07T11:51:05.403Z,8.27
2022-12-07T11:53:39.919Z,9.97
2022-12-07T11:56:14.167Z,8.50
2022-12-07T11:58:51.784Z,7.73
2022-12-07T12:01:34.754Z,8.70
2022-12-07T12:04:09.743Z,8.33
2022-12-07T12:06:38.345Z,11.17
2022-12-07T12:15:47.809Z,9.03
2022-12-07T12:18:41.379Z,8.33
2022-12-07T12:21:12.268Z,9.43
2022-12-07T12:23:45.571Z,8.43
2022-12-07T12:26:19.522Z,7.90
2022-12-07T12:28:57.533Z,7.90
2022-12-07T12:31:37.527Z,7.07
2022-12-07T12:34:27.366Z,10.10
2022-12-07T12:36:55.756Z,8.07
2022-12-07T12:39:24.383Z,8.90
2022-12-07T12:42:08.825Z,7.17
2022-12-07T12:45:12.377Z,8.50
2022-12-07T12:47:59.684Z,7.93
2022-12-07T12:50:33.697Z,7.87
2022-12-07T12:53:15.083Z,7.37
2022-12-07T12:56:06.965Z,7.73
2022-12-07T12:58:38.283Z,8.30
2022-12-07T13:01:45.926Z,9.17
2022-12-07T13:04:21.347Z,6.50
2022-12-07T13:06:49.830Z,6.47
2022-12-07T13:09:24.327Z,5.93
2022-12-07T13:11:58.456Z,9.10
2022-12-07T13:14:44.840Z,7.03
2022-12-07T13:17:13.961Z,7.83
2022-12-07T13:20:01.217Z,5.70
2022-12-07T13:22:50.736Z,7.40
2022-12-07T13:25:46.415Z,6.97
2022-12-07T13:28:19.458Z,8.67
2022-12-07T13:30:50.437Z,7.17
2022-12-07T13:33:21.141Z,7.60
2022-12-07T13:35:49.598Z,6.20
2022-12-07T13:38:25.644Z,7.47
2022-12-07T13:41:04.140Z,8.87
2022-12-07T13:43:34.046Z,7.10
2022-12-07T13:46:02.867Z,6.60
2022-12-07T13:48:34.505Z,7.40
2022-12-07T13:51:03.822Z,6.00
2022-12-07T13:53:32.533Z,6.03
2022-12-07T13:56:01.822Z,5.70
2022-12-07T13:58:32.768Z,7.10
2022-12-07T14:01:02.835Z,7.67
2022-12-07T14:03:33.542Z,7.50
2022-12-07T14:06:23.116Z,6.67
2022-12-07T14:08:55.884Z,7.10
2022-12-07T14:11:31.832Z,8.33
2022-12-07T14:14:01.123Z,6.07
2022-12-07T14:16:32.322Z,6.43
2022-12-07T14:19:01.574Z,7.10
2022-12-07T14:21:31.064Z,7.73
2022-12-07T14:24:11.613Z,8.43
2022-12-07T14:26:40.826Z,8.77
2022-12-07T14:29:22.179Z,7.10
2022-12-07T14:31:52.054Z,7.90
2022-12-07T14:34:22.388Z,9.93
2022-12-07T14:36:50.850Z,5.87
2022-12-07T14:39:19.268Z,8.00
2022-12-07T14:41:53.811Z,5.87
2022-12-07T14:44:25.107Z,6.53
2022-12-07T14:49:45.305Z,7.70
2022-12-07T14:55:05.469Z,9.93
2022-12-07T14:57:35.730Z,6.40
2022-12-07T15:00:04.624Z,8.37
2022-12-07T15:02:34.149Z,6.57
2022-12-07T15:05:03.054Z,10.20
2022-12-07T15:07:31.493Z,9.00
2022-12-07T15:09:59.670Z,7.67
2022-12-07T15:12:28.164Z,7.00
2022-12-07T15:14:56.285Z,7.83
2022-12-07T15:17:31.691Z,8.00
2022-12-07T15:20:02.089Z,8.23
2022-12-07T15:22:36.605Z,9.23
2022-12-07T15:25:07.353Z,8.50
2022-12-07T15:27:35.869Z,9.13
2022-12-07T15:30:04.928Z,9.40
2022-12-07T15:32:33.140Z,9.17
2022-12-07T15:35:03.023Z,8.13
2022-12-07T15:37:31.414Z,8.53
2022-12-07T15:40:04.104Z,9.43
2022-12-07T15:42:35.512Z,9.00
2022-12-07T15:45:06.292Z,9.37
2022-12-07T15:47:54.893Z,7.77
2022-12-07T15:50:26.771Z,8.47
2022-12-07T15:52:54.928Z,9.80
2022-12-07T15:55:23.034Z,10.47
2022-12-07T15:57:51.207Z,9.60
2022-12-07T16:00:20.737Z,10.50
2022-12-07T16:02:48.939Z,11.33
2022-12-07T16:05:17.176Z,11.63
2022-12-07T16:07:48.322Z,11.37
2022-12-07T16:10:16.775Z,13.20
2022-12-07T16:12:44.924Z,16.70
2022-12-07T16:15:13.287Z,15.47
2022-12-07T16:17:41.478Z,13.63
2022-12-07T16:20:10.772Z,15.53
2022-12-07T16:22:38.977Z,14.73
2022-12-07T16:25:09.995Z,16.90
2022-12-07T16:27:38.140Z,16.57
2022-12-07T16:30:07.672Z,15.23
2022-12-07T16:32:35.803Z,9.83
2022-12-07T16:35:04.312Z,12.07
2022-12-07T16:37:32.590Z,12.60
2022-12-07T16:40:00.736Z,14.30
2022-12-07T16:42:34.489Z,9.07
2022-12-07T16:45:03.071Z,13.07
2022-12-07T16:47:31.465Z,12.43
2022-12-07T16:49:59.655Z,11.17
2022-12-07T16:52:27.781Z,11.93
2022-12-07T16:54:55.898Z,15.00
2022-12-07T16:57:24.311Z,15.27
2022-12-07T16:59:54.466Z,13.73
2022-12-07T17:02:23.109Z,12.43
2022-12-07T17:04:52.359Z,12.83
2022-12-07T17:07:20.502Z,12.23
2022-12-07T17:09:49.016Z,10.83
2022-12-07T17:12:17.578Z,12.23
2022-12-07T17:15:04.186Z,13.37
2022-12-07T17:17:34.295Z,11.63
2022-12-07T17:20:02.716Z,14.00
2022-12-07T17:22:31.134Z,13.80
2022-12-07T17:24:59.576Z,11.40
2022-12-07T17:27:28.251Z,11.87
2022-12-07T17:29:56.699Z,13.47
2022-12-07T17:32:25.136Z,12.53
2022-12-07T17:34:54.924Z,11.47
2022-12-07T17:37:23.314Z,12.37
2022-12-07T17:39:51.825Z,11.13
2022-12-07T17:42:40.009Z,11.77
2022-12-07T17:45:09.741Z,8.53
2022-12-07T17:47:38.440Z,8.87
2022-12-07T17:50:09.353Z,9.77
2022-12-07T17:52:57.984Z,9.23
2022-12-07T17:55:26.372Z,8.90
2022-12-07T17:57:54.806Z,7.87
2022-12-07T18:00:23.371Z,10.23
2022-12-07T18:02:51.821Z,10.70
2022-12-07T18:05:21.709Z,10.73
2022-12-07T18:07:50.229Z,9.33
2022-12-07T18:10:18.806Z,10.27
2022-12-07T18:12:51.784Z,10.63
2022-12-07T18:15:20.490Z,9.67
2022-12-07T18:17:49.409Z,12.43
2022-12-07T18:20:17.854Z,11.83
2022-12-07T18:22:47.682Z,10.37
2022-12-07T18:25:16.175Z,11.60
2022-12-07T18:27:44.653Z,12.17
2022-12-07T18:30:13.574Z,11.90
2022-12-07T18:32:42.015Z,12.40
2022-12-07T18:35:10.543Z,10.40
2022-12-07T18:37:38.951Z,11.50
2022-12-07T18:40:09.796Z,11.07
2022-12-07T18:42:38.229Z,11.53
2022-12-07T18:45:07.192Z,14.87
2022-12-07T18:47:35.598Z,10.13
2022-12-07T18:50:04.062Z,12.53
2022-12-07T18:52:32.493Z,12.73
2022-12-07T18:55:03.286Z,12.03
2022-12-07T18:57:35.192Z,10.90
2022-12-07T19:00:04.116Z,12.13
2022-12-07T19:02:32.710Z,11.83
2022-12-07T19:05:02.759Z,13.23
2022-12-07T19:07:31.594Z,13.83
2022-12-07T19:10:00.040Z,12.00
2022-12-07T19:12:28.541Z,12.23
2022-12-07T19:14:58.369Z,13.93
2022-12-07T19:17:26.831Z,13.20
2022-12-07T19:19:55.279Z,12.63
2022-12-07T19:22:24.857Z,13.13
2022-12-07T19:24:54.174Z,12.60
2022-12-07T19:27:23.370Z,13.00
2022-12-07T19:29:52.092Z,13.00
2022-12-07T19:32:21.993Z,13.27
2022-12-07T19:34:50.690Z,13.23
2022-12-07T19:37:19.659Z,14.17
2022-12-07T19:39:51.875Z,16.10
2022-12-07T19:42:20.385Z,14.40
2022-12-07T19:44:48.798Z,13.20
2022-12-07T19:47:17.656Z,14.17
2022-12-07T19:49:47.745Z,14.67
2022-12-07T19:52:16.241Z,12.70
2022-12-07T19:54:44.716Z,12.83
2022-12-07T19:57:16.111Z,14.63
2022-12-07T19:59:44.666Z,14.07
2022-12-07T20:02:14.588Z,13.10
2022-12-07T20:04:43.373Z,14.40
2022-12-07T20:07:13.184Z,14.07
2022-12-07T20:09:42.095Z,13.63
2022-12-07T20:12:29.238Z,13.90
2022-12-07T20:14:57.764Z,15.50
2022-12-07T20:17:26.232Z,14.70
2022-12-07T20:19:54.648Z,14.37
2022-12-07T20:22:24.461Z,14.67
2022-12-07T20:24:52.946Z,15.50
2022-12-07T20:27:21.440Z,15.93
2022-12-07T20:29:50.788Z,13.60
2022-12-07T20:32:19.293Z,14.17
2022-12-07T20:34:48.790Z,14.67
2022-12-07T20:37:17.281Z,13.73
2022-12-07T20:39:47.077Z,15.77
2022-12-07T20:42:33.084Z,14.73
2022-12-07T20:45:03.984Z,16.67
2022-12-07T20:47:33.247Z,18.20
2022-12-07T20:50:01.694Z,17.30
2022-12-07T20:52:30.198Z,16.80
2022-12-07T20:55:00.112Z,16.67
2022-12-07T20:57:28.730Z,18.70
2022-12-07T20:59:57.146Z,18.03
2022-12-07T21:02:26.076Z,16.63
2022-12-07T21:04:54.729Z,18.00
2022-12-07T21:07:23.189Z,20.17
2022-12-07T21:09:51.836Z,18.00
2022-12-07T21:12:21.669Z,18.43
2022-12-07T21:14:50.085Z,18.97
2022-12-07T21:17:18.538Z,17.73
2022-12-07T21:19:47.056Z,19.87
2022-12-07T21:22:15.649Z,21.77
2022-12-07T21:24:44.175Z,16.70
2022-12-07T21:27:12.664Z,17.33
2022-12-07T21:29:44.853Z,20.30
2022-12-07T21:32:15.547Z,17.47
2022-12-07T21:34:44.038Z,19.77
2022-12-07T21:37:12.491Z,16.70
2022-12-07T21:39:40.909Z,15.90
2022-12-07T21:42:09.313Z,19.87
2022-12-07T21:44:37.823Z,17.40
2022-12-07T21:47:07.900Z,17.83
2022-12-07T21:49:36.657Z,16.20
2022-12-07T21:52:05.418Z,17.47
2022-12-07T21:54:33.934Z,17.93
2022-12-07T21:57:02.352Z,16.13
2022-12-07T21:59:30.733Z,17.83
2022-12-07T22:01:59.235Z,15.57
2022-12-07T22:04:29.526Z,17.40
2022-12-07T22:06:59.221Z,17.27
2022-12-07T22:09:30.453Z,17.87
2022-12-07T22:11:59.084Z,16.17
2022-12-07T22:14:45.219Z,17.27
2022-12-07T22:17:13.637Z,17.93
2022-12-07T22:19:43.437Z,15.93
2022-12-07T22:22:15.297Z,17.47
2022-12-07T22:24:44.397Z,17.20
2022-12-07T22:27:12.998Z,17.70
2022-12-07T22:29:41.415Z,18.37
2022-12-07T22:32:39.834Z,17.70
2022-12-07T22:35:00.392Z,18.53
2022-12-07T22:37:29.452Z,17.73
2022-12-07T22:39:57.857Z,19.13
2022-12-07T22:42:26.323Z,17.27
2022-12-07T22:44:54.750Z,16.67
2022-12-07T22:47:23.274Z,18.23
2022-12-07T22:49:51.997Z,17.43
2022-12-07T22:52:21.921Z,15.50
2022-12-07T22:54:50.326Z,16.47
2022-12-07T22:57:21.602Z,16.97
2022-12-07T22:59:50.004Z,17.43
2022-12-07T23:02:18.420Z,16.67
2022-12-07T23:04:46.867Z,15.83
2022-12-07T23:07:15.276Z,16.13
2022-12-07T23:09:45.088Z,16.27
2022-12-07T23:12:42.540Z,20.57
2022-12-07T23:15:11.590Z,17.03
2022-12-07T23:17:40.011Z,15.20
2022-12-07T23:20:09.501Z,16.17
2022-12-07T23:22:37.908Z,15.67
2022-12-07T23:25:08.458Z,17.03
2022-12-07T23:27:36.995Z,17.87
2022-12-07T23:30:09.033Z,16.90
2022-12-07T23:32:38.100Z,17.87
2022-12-07T23:35:06.928Z,17.10
2022-12-07T23:37:35.462Z,17.03
2022-12-07T23:40:03.893Z,18.97
2022-12-07T23:42:34.249Z,17.30
2022-12-07T23:45:03.291Z,17.80
2022-12-07T23:47:32.015Z,15.83
2022-12-07T23:50:00.407Z,20.87
2022-12-07T23:52:28.883Z,15.77
2022-12-07T23:54:57.321Z,17.03
2022-12-07T23:57:25.743Z,16.47
2022-12-07T23:59:55.518Z,17.33
